Loyalsockville, Pennsylvania
Current Conditions -  °F | °C
As of 11:06 PM on Sunday 23 Nov 2014 (Local Time) from KIPT Reporting Station
Light Rain Light Rain  
Wind Chill: 44°   Ceiling: 2300
Heat Index: 48°   Visibility: 6mi
Dew Point: 40°   Wind: 9mph
Humidity: 74%   Direction: 90°E
Pressure: 29.87"   Gusts: NA
Location:  41.2816°N, 76.8857°W
Report Text: KIPT 240406Z AUTO 09008KT 6SM -RA BKN023 OVC030 09/04 A2987 RMK AO2 P0000 T00890044
Loading
Personal Weather Stations






























Interactive Weather Map New forecast layout! Learn more

10-Day Weather Forecast

Advertisements
Track Severe Weather on mobile